createdAt,value
2022-11-04T00:01:33.818Z,62.86
2022-11-04T00:04:01.418Z,62.42
2022-11-04T00:06:28.743Z,62.59
2022-11-04T00:08:57.555Z,62.97
2022-11-04T00:11:44.994Z,62.86
2022-11-04T00:14:13.185Z,62.57
2022-11-04T00:16:59.968Z,62.81
2022-11-04T00:19:27.947Z,62.53
2022-11-04T00:22:14.620Z,62.50
2022-11-04T00:25:00.544Z,62.53
2022-11-04T00:27:46.875Z,62.56
2022-11-04T00:30:14.182Z,62.83
2022-11-04T00:33:00.199Z,62.93
2022-11-04T00:35:27.521Z,62.79
2022-11-04T00:37:55.102Z,62.95
2022-11-04T00:40:22.668Z,62.96
2022-11-04T00:42:49.990Z,63.09
2022-11-04T00:45:17.566Z,62.80
2022-11-04T00:47:44.880Z,63.35
2022-11-04T00:50:12.231Z,63.13
2022-11-04T00:52:39.783Z,62.71
2022-11-04T00:55:07.466Z,62.73
2022-11-04T00:57:34.757Z,62.39
2022-11-04T01:00:02.383Z,62.19
2022-11-04T01:02:29.921Z,62.38
2022-11-04T01:04:57.282Z,62.67
2022-11-04T01:07:24.865Z,62.96
2022-11-04T01:09:52.179Z,63.29
2022-11-04T01:12:19.708Z,62.76
2022-11-04T01:14:49.739Z,62.91
2022-11-04T01:17:17.207Z,62.63
2022-11-04T01:19:44.546Z,62.47
2022-11-04T01:22:12.112Z,62.97
2022-11-04T01:24:39.442Z,62.68
2022-11-04T01:27:06.783Z,62.75
2022-11-04T01:29:34.421Z,62.82
2022-11-04T01:32:01.739Z,63.13
2022-11-04T01:34:29.142Z,63.30
2022-11-04T01:36:56.856Z,63.57
2022-11-04T01:39:24.183Z,63.39
2022-11-04T01:41:51.533Z,63.53
2022-11-04T01:44:50.026Z,63.18
2022-11-04T01:47:42.305Z,63.54
2022-11-04T01:50:14.244Z,63.92
2022-11-04T01:52:51.241Z,64.11
2022-11-04T01:55:31.786Z,63.73
2022-11-04T01:58:04.474Z,63.76
2022-11-04T02:00:32.996Z,63.98
2022-11-04T02:03:10.401Z,63.96
2022-11-04T02:05:38.789Z,63.56
2022-11-04T02:08:07.048Z,63.62
2022-11-04T02:10:34.342Z,63.50
2022-11-04T02:13:03.440Z,63.37
2022-11-04T02:15:40.071Z,63.57
2022-11-04T02:18:14.841Z,63.38
2022-11-04T02:21:09.660Z,63.50
2022-11-04T02:24:15.015Z,63.68
2022-11-04T02:27:20.299Z,63.44
2022-11-04T02:30:20.086Z,63.43
2022-11-04T02:33:00.081Z,63.93
2022-11-04T02:35:56.271Z,63.61
2022-11-04T02:38:49.136Z,63.19
2022-11-04T02:41:16.387Z,64.70
2022-11-04T02:43:53.224Z,64.84
2022-11-04T02:46:36.914Z,64.25
2022-11-04T02:49:25.334Z,64.53
2022-11-04T02:52:00.699Z,64.66
2022-11-04T02:54:36.493Z,64.39
2022-11-04T02:57:07.522Z,64.38
2022-11-04T02:59:38.384Z,64.97
2022-11-04T03:02:09.156Z,64.29
2022-11-04T03:04:46.859Z,64.35
2022-11-04T03:07:16.184Z,63.97
2022-11-04T03:09:48.046Z,64.10
2022-11-04T03:12:17.737Z,64.44
2022-11-04T03:14:49.598Z,64.61
2022-11-04T03:17:24.007Z,64.60
2022-11-04T03:19:57.373Z,64.52
2022-11-04T03:22:35.744Z,64.75
2022-11-04T03:25:04.780Z,64.83
2022-11-04T03:27:45.000Z,64.48
2022-11-04T03:33:04.714Z,64.40
2022-11-04T03:35:32.590Z,65.05
2022-11-04T03:38:00.288Z,64.81
2022-11-04T03:40:27.617Z,65.31
2022-11-04T03:43:17.885Z,65.56
2022-11-04T03:45:45.294Z,65.79
2022-11-04T03:48:13.236Z,66.47
2022-11-04T03:50:47.615Z,65.97
2022-11-04T03:53:22.233Z,65.92
2022-11-04T03:55:55.421Z,65.45
2022-11-04T03:58:55.166Z,64.80
2022-11-04T04:01:35.277Z,65.12
2022-11-04T04:04:10.188Z,66.05
2022-11-04T04:06:37.997Z,65.45
2022-11-04T04:09:16.583Z,65.73
2022-11-04T04:11:55.112Z,65.32
2022-11-04T04:14:39.198Z,65.17
2022-11-04T04:17:20.243Z,65.81
2022-11-04T04:20:11.020Z,66.07
2022-11-04T04:23:01.994Z,66.02
2022-11-04T04:25:49.226Z,65.70
2022-11-04T04:28:17.840Z,65.50
2022-11-04T04:30:46.387Z,64.87
2022-11-04T04:33:15.818Z,65.44
2022-11-04T04:35:53.853Z,65.55
2022-11-04T04:38:43.952Z,65.44
2022-11-04T04:41:36.535Z,65.17
2022-11-04T04:44:23.775Z,65.72
2022-11-04T04:46:52.282Z,65.84
2022-11-04T04:49:19.882Z,65.71
2022-11-04T04:51:47.903Z,65.46
2022-11-04T04:54:15.509Z,65.14
2022-11-04T04:56:43.128Z,64.93
2022-11-04T04:59:10.437Z,64.88
2022-11-04T05:01:38.033Z,64.63
2022-11-04T05:04:05.682Z,64.86
2022-11-04T05:06:32.996Z,65.94
2022-11-04T05:09:00.345Z,64.89
2022-11-04T05:11:27.929Z,64.49
2022-11-04T05:13:55.221Z,64.85
2022-11-04T05:16:22.579Z,64.09
2022-11-04T05:18:51.892Z,65.88
2022-11-04T05:21:19.244Z,65.15
2022-11-04T05:23:46.555Z,65.43
2022-11-04T05:26:14.991Z,65.79
2022-11-04T05:28:42.283Z,65.49
2022-11-04T05:31:09.614Z,66.24
2022-11-04T05:33:37.213Z,65.66
2022-11-04T05:36:13.203Z,65.65
2022-11-04T05:38:41.085Z,65.33
2022-11-04T05:41:10.424Z,65.93
2022-11-04T05:43:38.606Z,65.75
2022-11-04T05:46:06.165Z,64.93
2022-11-04T05:48:39.260Z,64.88
2022-11-04T05:51:07.853Z,64.58
2022-11-04T05:53:35.379Z,64.78
2022-11-04T05:56:02.690Z,64.49
2022-11-04T05:58:30.275Z,64.50
2022-11-04T06:01:43.914Z,64.04
2022-11-04T06:04:16.722Z,64.62
2022-11-04T06:06:44.151Z,64.14
2022-11-04T06:09:11.906Z,64.75
2022-11-04T06:11:39.697Z,64.27
2022-11-04T06:14:07.000Z,64.83
2022-11-04T06:16:34.584Z,64.55
2022-11-04T06:19:06.094Z,67.66
2022-11-04T06:21:37.342Z,66.45
2022-11-04T06:24:04.769Z,65.30
2022-11-04T06:26:32.126Z,65.16
2022-11-04T06:28:59.686Z,64.92
2022-11-04T06:31:27.274Z,65.47
2022-11-04T06:33:54.634Z,65.76
2022-11-04T06:36:22.331Z,66.11
2022-11-04T06:38:49.655Z,66.55
2022-11-04T06:41:17.394Z,66.09
2022-11-04T06:43:45.157Z,66.28
2022-11-04T06:46:40.703Z,65.82
2022-11-04T06:49:20.049Z,66.03
2022-11-04T06:51:47.968Z,66.35
2022-11-04T06:54:16.839Z,65.96
2022-11-04T06:56:44.731Z,65.96
2022-11-04T06:59:15.916Z,64.72
2022-11-04T07:01:43.779Z,65.14
2022-11-04T07:04:11.183Z,65.36
2022-11-04T07:06:43.951Z,65.90
2022-11-04T07:09:13.990Z,66.32
2022-11-04T07:11:42.924Z,65.57
2022-11-04T07:14:11.013Z,64.98
2022-11-04T07:16:38.730Z,64.92
2022-11-04T07:19:06.588Z,63.95
2022-11-04T07:21:33.939Z,64.04
2022-11-04T07:24:02.127Z,64.62
2022-11-04T07:26:29.455Z,64.64
2022-11-04T07:28:58.028Z,64.22
2022-11-04T07:31:25.656Z,63.87
2022-11-04T07:33:53.639Z,63.99
2022-11-04T07:36:20.981Z,63.96
2022-11-04T07:38:48.615Z,64.34
2022-11-04T07:41:16.577Z,63.67
2022-11-04T07:43:48.716Z,64.04
2022-11-04T07:46:16.743Z,63.31
2022-11-04T07:48:44.081Z,63.33
2022-11-04T07:51:14.771Z,63.30
2022-11-04T07:53:42.798Z,64.12
2022-11-04T07:56:11.746Z,63.56
2022-11-04T07:58:39.804Z,64.20
2022-11-04T08:01:12.253Z,64.80
2022-11-04T08:03:39.993Z,64.27
2022-11-04T08:06:08.749Z,63.69
2022-11-04T08:08:36.175Z,64.15
2022-11-04T08:11:07.015Z,63.54
2022-11-04T08:13:36.274Z,63.09
2022-11-04T08:16:13.113Z,63.70
2022-11-04T08:18:41.566Z,63.29
2022-11-04T08:21:09.718Z,69.21
2022-11-04T08:23:37.391Z,66.99
2022-11-04T08:26:09.815Z,64.45
2022-11-04T08:28:37.804Z,62.04
2022-11-04T08:31:07.629Z,62.19
2022-11-04T08:33:36.504Z,62.45
2022-11-04T08:36:10.009Z,62.80
2022-11-04T08:38:37.526Z,61.68
2022-11-04T08:41:06.995Z,62.26
2022-11-04T08:43:34.924Z,61.68
2022-11-04T08:46:05.705Z,62.63
2022-11-04T08:48:35.172Z,61.92
2022-11-04T08:51:04.611Z,62.31
2022-11-04T08:53:31.929Z,62.66
2022-11-04T08:55:59.511Z,62.24
2022-11-04T08:58:26.822Z,62.78
2022-11-04T09:00:54.141Z,61.77
2022-11-04T09:03:21.746Z,63.38
2022-11-04T09:08:17.634Z,62.71
2022-11-04T09:10:46.847Z,63.06
2022-11-04T09:13:15.887Z,63.07
2022-11-04T09:15:43.303Z,62.58
2022-11-04T09:18:10.901Z,66.55
2022-11-04T09:20:38.622Z,66.57
2022-11-04T09:23:06.831Z,64.16
2022-11-04T09:25:35.501Z,63.57
2022-11-04T09:28:03.154Z,61.90
2022-11-04T09:30:30.686Z,60.65
2022-11-04T09:32:58.689Z,59.18
2022-11-04T09:35:27.628Z,58.92
2022-11-04T09:37:55.170Z,58.93
2022-11-04T09:40:24.838Z,59.39
2022-11-04T09:43:01.582Z,59.76
2022-11-04T09:45:31.124Z,60.03
2022-11-04T09:48:01.486Z,60.47
2022-11-04T09:51:01.052Z,60.91
2022-11-04T09:53:41.853Z,61.93
2022-11-04T09:56:16.270Z,63.19
2022-11-04T09:58:43.578Z,63.42
2022-11-04T10:01:28.922Z,63.62
2022-11-04T10:04:45.945Z,64.17
2022-11-04T10:07:16.222Z,63.77
2022-11-04T10:10:34.982Z,63.56
2022-11-04T10:13:23.198Z,63.65
2022-11-04T10:15:58.647Z,63.88
2022-11-04T10:18:50.270Z,63.93
2022-11-04T10:21:37.405Z,63.82
2022-11-04T10:24:20.767Z,63.99
2022-11-04T10:27:00.764Z,64.03
2022-11-04T10:29:34.049Z,64.12
2022-11-04T10:32:03.675Z,64.13
2022-11-04T10:34:33.270Z,64.17
2022-11-04T10:37:00.601Z,64.51
2022-11-04T10:39:31.499Z,64.51
2022-11-04T10:41:59.269Z,65.10
2022-11-04T10:44:29.510Z,65.05
2022-11-04T10:47:18.885Z,65.79
2022-11-04T10:50:27.196Z,64.62
2022-11-04T10:52:48.650Z,65.16
2022-11-04T10:55:38.401Z,65.59
2022-11-04T10:58:16.265Z,65.66
2022-11-04T11:00:44.046Z,66.18
2022-11-04T11:03:34.302Z,65.98
2022-11-04T11:06:37.483Z,65.88
2022-11-04T11:09:28.519Z,66.07
2022-11-04T11:12:00.803Z,65.84
2022-11-04T11:14:28.295Z,66.08
2022-11-04T11:16:57.235Z,65.54
2022-11-04T11:19:25.676Z,65.42
2022-11-04T11:21:55.987Z,65.47
2022-11-04T11:24:28.183Z,64.96
2022-11-04T11:26:57.704Z,65.25
2022-11-04T11:29:26.442Z,64.80
2022-11-04T11:31:55.603Z,64.83
2022-11-04T11:34:32.579Z,64.94
2022-11-04T11:37:05.215Z,64.98
2022-11-04T11:39:33.642Z,65.25
2022-11-04T11:42:00.940Z,65.29
2022-11-04T11:44:33.809Z,67.50
2022-11-04T11:47:06.728Z,64.93
2022-11-04T11:49:36.629Z,64.81
2022-11-04T11:52:38.341Z,64.81
2022-11-04T11:55:25.178Z,65.09
2022-11-04T12:01:11.883Z,65.17
2022-11-04T12:09:59.769Z,64.30
2022-11-04T12:13:06.797Z,63.77
2022-11-04T12:15:37.822Z,63.92
2022-11-04T12:18:18.637Z,64.09
2022-11-04T12:20:53.778Z,64.39
2022-11-04T12:23:43.442Z,63.48
2022-11-04T12:26:20.944Z,66.10
2022-11-04T12:29:29.799Z,64.04
2022-11-04T12:32:27.671Z,63.08
2022-11-04T12:35:04.388Z,63.92
2022-11-04T12:37:52.907Z,63.98
2022-11-04T12:40:29.850Z,64.15
2022-11-04T12:43:35.802Z,64.73
2022-11-04T12:46:12.461Z,64.04
2022-11-04T12:48:57.421Z,63.86
2022-11-04T12:51:48.134Z,63.99
2022-11-04T12:54:34.068Z,63.71
2022-11-04T12:57:19.621Z,63.93
2022-11-04T13:00:11.167Z,63.68
2022-11-04T13:02:42.929Z,63.96
2022-11-04T13:05:38.431Z,64.11
2022-11-04T13:08:24.580Z,63.74
2022-11-04T13:11:24.149Z,64.69
2022-11-04T13:14:01.880Z,65.06
2022-11-04T13:16:32.546Z,65.10
2022-11-04T13:19:00.378Z,64.49
2022-11-04T13:21:30.423Z,64.65
2022-11-04T13:24:17.875Z,64.85
2022-11-04T13:26:45.478Z,64.11
2022-11-04T13:29:15.652Z,63.74
2022-11-04T13:31:58.217Z,64.54
2022-11-04T13:34:33.000Z,64.96
2022-11-04T13:37:25.185Z,65.20
2022-11-04T13:39:57.850Z,65.04
2022-11-04T13:42:40.436Z,65.98
2022-11-04T13:45:16.398Z,65.72
2022-11-04T13:47:50.540Z,65.69
2022-11-04T13:50:27.804Z,65.62
2022-11-04T13:52:55.152Z,65.07
2022-11-04T13:55:22.871Z,65.24
2022-11-04T13:58:01.589Z,65.10
2022-11-04T14:00:30.752Z,65.55
2022-11-04T14:03:26.874Z,65.06
2022-11-04T14:06:03.883Z,65.26
2022-11-04T14:08:32.359Z,65.39
2022-11-04T14:11:01.571Z,65.22
2022-11-04T14:13:32.596Z,65.40
2022-11-04T14:16:07.287Z,64.83
2022-11-04T14:18:42.298Z,65.18
2022-11-04T14:21:11.460Z,64.94
2022-11-04T14:23:53.046Z,64.55
2022-11-04T14:26:26.995Z,64.86
2022-11-04T14:29:03.009Z,65.07
2022-11-04T14:31:35.884Z,64.26
2022-11-04T14:34:04.291Z,64.64
2022-11-04T14:36:41.619Z,64.56
2022-11-04T14:39:11.633Z,64.23
2022-11-04T14:41:57.450Z,64.39
2022-11-04T14:44:37.665Z,64.26
2022-11-04T14:47:20.427Z,65.14
2022-11-04T14:49:59.895Z,64.26
2022-11-04T14:52:30.885Z,64.46
2022-11-04T14:55:05.315Z,64.85
2022-11-04T14:57:44.928Z,64.85
2022-11-04T15:00:36.075Z,64.66
2022-11-04T15:03:32.068Z,64.97
2022-11-04T15:06:05.494Z,67.11
2022-11-04T15:08:38.212Z,66.49
2022-11-04T15:11:16.908Z,65.61
2022-11-04T15:13:50.327Z,65.20
2022-11-04T15:16:24.353Z,64.29
2022-11-04T15:18:53.161Z,64.04
2022-11-04T15:21:20.532Z,63.51
2022-11-04T15:23:50.121Z,63.48
2022-11-04T15:26:30.163Z,62.80
2022-11-04T15:29:03.517Z,63.05
2022-11-04T15:31:32.266Z,63.28
2022-11-04T15:34:03.165Z,63.34
2022-11-04T15:36:38.662Z,63.54
2022-11-04T15:39:11.527Z,63.91
2022-11-04T15:42:00.025Z,64.30
2022-11-04T15:44:29.985Z,64.12
2022-11-04T15:46:59.979Z,64.27
2022-11-04T15:49:28.980Z,63.97
2022-11-04T15:52:01.358Z,64.03
2022-11-04T15:54:31.043Z,64.74
2022-11-04T15:57:01.068Z,64.94
2022-11-04T15:59:31.759Z,64.95
2022-11-04T16:01:59.798Z,64.42
2022-11-04T16:04:28.462Z,64.03
2022-11-04T16:07:23.067Z,64.37
2022-11-04T16:09:54.575Z,63.93
2022-11-04T16:12:28.034Z,63.37
2022-11-04T16:14:57.074Z,63.92
2022-11-04T16:17:25.590Z,64.18
2022-11-04T16:19:56.131Z,64.36
2022-11-04T16:22:28.535Z,64.35
2022-11-04T16:24:56.647Z,64.39
2022-11-04T16:27:25.125Z,64.23
2022-11-04T16:30:01.760Z,64.22
2022-11-04T16:32:43.564Z,64.31
2022-11-04T16:35:25.292Z,64.16
2022-11-04T16:37:54.097Z,64.07
2022-11-04T16:40:22.752Z,64.71
2022-11-04T16:42:50.606Z,64.45
2022-11-04T16:45:25.158Z,63.96
2022-11-04T16:47:53.490Z,63.77
2022-11-04T16:50:21.546Z,63.56
2022-11-04T16:52:49.106Z,64.13
2022-11-04T16:55:16.446Z,64.27
2022-11-04T16:57:47.840Z,66.35
2022-11-04T17:00:23.699Z,66.31
2022-11-04T17:02:52.533Z,64.13
2022-11-04T17:05:20.511Z,63.50
2022-11-04T17:07:53.632Z,63.27
2022-11-04T17:10:28.285Z,63.38
2022-11-04T17:12:55.698Z,63.96
2022-11-04T17:15:23.287Z,63.66
2022-11-04T17:17:50.626Z,63.69
2022-11-04T17:20:18.315Z,63.23
2022-11-04T17:22:47.255Z,63.52
2022-11-04T17:25:20.453Z,63.78
2022-11-04T17:27:48.592Z,63.51
2022-11-04T17:30:16.994Z,63.87
2022-11-04T17:32:45.171Z,62.83
2022-11-04T17:35:13.446Z,62.68
2022-11-04T17:37:41.197Z,63.71
2022-11-04T17:40:12.053Z,63.63
2022-11-04T17:42:58.147Z,63.18
2022-11-04T17:45:25.546Z,62.54
2022-11-04T17:47:53.110Z,63.78
2022-11-04T17:50:20.464Z,63.38
2022-11-04T17:52:49.314Z,63.09
2022-11-04T17:55:19.764Z,63.25
2022-11-04T17:57:50.985Z,63.04
2022-11-04T18:00:19.518Z,63.19
2022-11-04T18:02:47.227Z,63.37
2022-11-04T18:05:14.610Z,63.29
2022-11-04T18:07:42.216Z,63.85
2022-11-04T18:10:09.946Z,63.91
2022-11-04T18:12:37.273Z,63.73
2022-11-04T18:15:05.882Z,63.51
2022-11-04T18:17:37.186Z,63.42
2022-11-04T18:20:08.247Z,63.18
2022-11-04T18:22:40.032Z,62.60
2022-11-04T18:25:08.045Z,63.43
2022-11-04T18:27:35.545Z,63.35
2022-11-04T18:30:03.502Z,63.07
2022-11-04T18:32:31.078Z,63.26
2022-11-04T18:34:58.378Z,63.49
2022-11-04T18:37:26.212Z,64.04
2022-11-04T18:39:53.541Z,64.26
2022-11-04T18:42:20.860Z,64.76
2022-11-04T18:44:48.607Z,64.87
2022-11-04T18:47:16.251Z,64.78
2022-11-04T18:49:43.595Z,65.12
2022-11-04T18:52:11.374Z,64.96
2022-11-04T18:54:38.763Z,65.56
2022-11-04T18:57:06.073Z,65.26
2022-11-04T18:59:33.719Z,65.23
2022-11-04T19:02:01.330Z,64.91
2022-11-04T19:04:28.867Z,65.27
2022-11-04T19:06:56.548Z,65.33
2022-11-04T19:12:30.032Z,65.18
2022-11-04T19:14:57.340Z,65.12
2022-11-04T19:17:25.225Z,64.97
2022-11-04T19:19:52.541Z,65.11
2022-11-04T19:22:19.838Z,65.05
2022-11-04T19:24:47.512Z,64.96
2022-11-04T19:27:15.161Z,64.75
2022-11-04T19:29:42.482Z,64.82
2022-11-04T19:32:14.321Z,64.91
2022-11-04T19:34:42.748Z,64.93
2022-11-04T19:37:10.784Z,65.13
2022-11-04T19:39:39.014Z,64.61
2022-11-04T19:42:24.854Z,64.97
2022-11-04T19:44:52.436Z,64.67
2022-11-04T19:47:19.766Z,64.69
2022-11-04T19:49:47.284Z,65.08
2022-11-04T19:52:14.918Z,64.92
2022-11-04T19:54:42.268Z,64.71
2022-11-04T19:57:09.611Z,64.39
2022-11-04T19:59:37.369Z,64.78
2022-11-04T20:02:04.779Z,64.82
2022-11-04T20:04:32.555Z,65.21
2022-11-04T20:06:59.846Z,65.12
2022-11-04T20:09:27.172Z,65.19
2022-11-04T20:12:13.200Z,65.17
2022-11-04T20:14:40.507Z,65.24
2022-11-04T20:17:08.231Z,65.32
2022-11-04T20:19:35.532Z,64.50
2022-11-04T20:22:03.689Z,64.61
2022-11-04T20:24:31.327Z,64.74
2022-11-04T20:26:58.644Z,64.38
2022-11-04T20:29:26.001Z,64.47
2022-11-04T20:31:53.587Z,64.80
2022-11-04T20:34:20.911Z,64.92
2022-11-04T20:36:48.449Z,64.77
2022-11-04T20:39:18.242Z,65.04
2022-11-04T20:41:45.733Z,64.96
2022-11-04T20:44:14.488Z,64.94
2022-11-04T20:46:42.807Z,64.43
2022-11-04T20:49:11.141Z,64.87
2022-11-04T20:51:48.591Z,64.94
2022-11-04T20:54:17.969Z,65.23
2022-11-04T20:56:45.569Z,66.97
2022-11-04T20:59:13.812Z,67.60
2022-11-04T21:01:43.561Z,67.60
2022-11-04T21:04:14.901Z,67.32
2022-11-04T21:06:42.528Z,68.15
2022-11-04T21:09:12.212Z,67.31
2022-11-04T21:11:40.032Z,67.23
2022-11-04T21:14:08.805Z,67.03
2022-11-04T21:16:36.340Z,67.04
2022-11-04T21:19:04.712Z,67.68
2022-11-04T21:21:33.291Z,67.71
2022-11-04T21:24:02.799Z,68.24
2022-11-04T21:26:32.154Z,67.76
2022-11-04T21:29:02.188Z,68.19
2022-11-04T21:31:31.352Z,68.27
2022-11-04T21:33:59.266Z,68.79
2022-11-04T21:36:26.845Z,68.50
2022-11-04T21:38:54.454Z,68.57
2022-11-04T21:41:25.235Z,69.43
2022-11-04T21:43:56.999Z,69.60
2022-11-04T21:46:25.382Z,69.74
2022-11-04T21:48:53.077Z,69.62
2022-11-04T21:51:25.616Z,69.55
2022-11-04T21:53:53.282Z,70.48
2022-11-04T21:56:32.962Z,70.24
2022-11-04T21:59:00.928Z,70.46
2022-11-04T22:01:29.502Z,70.12
2022-11-04T22:03:59.494Z,71.03
2022-11-04T22:06:33.539Z,71.77
2022-11-04T22:09:03.486Z,71.13
2022-11-04T22:11:32.236Z,69.78
2022-11-04T22:14:01.504Z,71.02
2022-11-04T22:16:30.998Z,70.62
2022-11-04T22:18:59.980Z,70.33
2022-11-04T22:21:28.526Z,70.82
2022-11-04T22:23:56.615Z,71.02
2022-11-04T22:26:26.540Z,71.83
2022-11-04T22:28:54.428Z,71.09
2022-11-04T22:31:27.174Z,70.90
2022-11-04T22:33:55.056Z,70.57
2022-11-04T22:36:23.398Z,72.22
2022-11-04T22:38:50.759Z,71.50
2022-11-04T22:41:21.400Z,71.15
2022-11-04T22:43:48.981Z,70.29
2022-11-04T22:46:27.585Z,70.36
2022-11-04T22:48:55.335Z,69.68
2022-11-04T22:51:23.091Z,70.35
2022-11-04T22:53:57.868Z,70.40
2022-11-04T22:56:27.795Z,69.84
2022-11-04T22:58:55.247Z,69.42
2022-11-04T23:01:22.750Z,69.33
2022-11-04T23:03:51.853Z,70.12
2022-11-04T23:06:19.490Z,69.96
2022-11-04T23:08:46.942Z,69.34
2022-11-04T23:11:37.130Z,69.58
2022-11-04T23:14:23.602Z,69.64
2022-11-04T23:17:10.711Z,69.63
2022-11-04T23:19:38.695Z,69.74
2022-11-04T23:22:25.202Z,70.06
2022-11-04T23:25:05.728Z,70.30
2022-11-04T23:27:58.720Z,69.38
2022-11-04T23:30:26.565Z,69.34
2022-11-04T23:32:56.864Z,69.76
2022-11-04T23:35:46.295Z,69.22
2022-11-04T23:38:14.251Z,68.77
2022-11-04T23:40:41.897Z,69.43
2022-11-04T23:43:09.620Z,70.73
2022-11-04T23:45:55.821Z,70.15
2022-11-04T23:48:41.964Z,69.35
2022-11-04T23:51:28.463Z,70.19
2022-11-04T23:54:14.370Z,70.70
2022-11-04T23:57:00.454Z,70.03
2022-11-04T23:59:46.375Z,70.40
